createdAt,value
2018-03-20T00:08:45.356Z,0
2018-03-20T00:18:51.608Z,0
2018-03-20T00:28:46.040Z,0
2018-03-20T00:38:46.011Z,0
2018-03-20T00:48:46.115Z,0
2018-03-20T00:58:44.998Z,0
2018-03-20T01:08:45.051Z,0
2018-03-20T01:18:47.104Z,0
2018-03-20T01:28:44.986Z,0
2018-03-20T01:38:45.087Z,0
2018-03-20T01:48:46.003Z,0
2018-03-20T01:58:49.759Z,0
2018-03-20T02:08:50.934Z,0
2018-03-20T02:18:46.165Z,0
2018-03-20T02:28:45.127Z,0
2018-03-20T02:38:45.125Z,0
2018-03-20T02:48:46.166Z,0
2018-03-20T02:58:47.066Z,0
2018-03-20T03:08:45.142Z,0
2018-03-20T03:18:45.225Z,0
2018-03-20T03:28:49.157Z,0
2018-03-20T03:38:45.115Z,0
2018-03-20T03:48:45.249Z,0
2018-03-20T03:58:46.188Z,0
2018-03-20T04:08:46.174Z,0
2018-03-20T04:18:46.207Z,0
2018-03-20T04:28:46.154Z,0
2018-03-20T04:38:45.166Z,0
2018-03-20T04:48:45.235Z,0
2018-03-20T04:58:45.178Z,0
2018-03-20T05:08:45.473Z,0
2018-03-20T05:18:45.332Z,0
2018-03-20T05:28:46.115Z,0
2018-03-20T05:38:45.548Z,0
2018-03-20T05:48:46.238Z,5
2018-03-20T05:58:45.231Z,25
2018-03-20T06:08:45.201Z,25
2018-03-20T06:18:45.544Z,30
2018-03-20T06:28:45.254Z,55
2018-03-20T06:38:45.402Z,55
2018-03-20T06:48:45.334Z,60
2018-03-20T06:58:45.282Z,60
2018-03-20T07:08:45.550Z,70
2018-03-20T07:18:45.300Z,65
2018-03-20T07:28:45.381Z,75
2018-03-20T07:38:45.222Z,120
2018-03-20T07:48:45.362Z,140
2018-03-20T07:58:45.316Z,115
2018-03-20T08:08:45.296Z,100
2018-03-20T08:18:45.373Z,100
2018-03-20T08:28:45.278Z,100
2018-03-20T08:38:45.336Z,95
2018-03-20T08:48:45.358Z,90
2018-03-20T08:58:45.349Z,95
2018-03-20T09:08:45.645Z,90
2018-03-20T09:18:45.469Z,90
2018-03-20T09:28:45.467Z,90
2018-03-20T09:38:47.545Z,95
2018-03-20T09:48:46.828Z,95
2018-03-20T09:58:45.359Z,95
2018-03-20T10:08:45.362Z,100
2018-03-20T10:18:45.398Z,100
2018-03-20T10:28:45.419Z,100
2018-03-20T10:38:45.504Z,100
2018-03-20T10:48:45.440Z,100
2018-03-20T10:58:45.466Z,105
2018-03-20T11:08:45.415Z,105
2018-03-20T11:18:45.390Z,105
2018-03-20T11:28:45.431Z,105
2018-03-20T11:38:45.578Z,105
2018-03-20T11:48:45.429Z,105
2018-03-20T11:58:45.464Z,105
2018-03-20T12:08:45.515Z,105
2018-03-20T12:18:45.482Z,105
2018-03-20T12:28:45.536Z,105
2018-03-20T12:38:45.561Z,105
2018-03-20T12:48:45.489Z,105
2018-03-20T12:58:45.524Z,105
2018-03-20T13:08:45.507Z,105
2018-03-20T13:18:45.497Z,105
2018-03-20T13:28:45.610Z,105
2018-03-20T13:38:45.580Z,105
2018-03-20T13:48:45.597Z,105
2018-03-20T13:58:45.728Z,105
2018-03-20T14:08:45.604Z,105
2018-03-20T14:18:45.614Z,100
2018-03-20T14:28:45.595Z,100
2018-03-20T14:38:45.713Z,100
2018-03-20T14:48:45.860Z,80
2018-03-20T14:58:45.640Z,100
2018-03-20T15:08:45.685Z,95
2018-03-20T15:18:45.816Z,90
2018-03-20T15:28:45.703Z,85
2018-03-20T15:38:45.631Z,85
2018-03-20T15:48:45.624Z,80
2018-03-20T15:58:45.732Z,75
2018-03-20T16:08:45.756Z,65
2018-03-20T16:18:45.760Z,65
2018-03-20T16:28:45.732Z,60
2018-03-20T16:38:45.934Z,55
2018-03-20T16:48:45.837Z,45
2018-03-20T16:58:45.849Z,35
2018-03-20T17:08:45.913Z,30
2018-03-20T17:18:45.827Z,20
2018-03-20T17:28:45.759Z,10
2018-03-20T17:38:45.839Z,5
2018-03-20T17:48:46.071Z,0
2018-03-20T17:58:45.839Z,0
2018-03-20T18:08:45.913Z,0
2018-03-20T18:18:45.826Z,0
2018-03-20T18:28:46.020Z,0
2018-03-20T18:38:45.837Z,0
2018-03-20T18:48:45.866Z,0
2018-03-20T18:58:45.842Z,0
2018-03-20T19:08:45.829Z,0
2018-03-20T19:18:45.832Z,0
2018-03-20T19:28:45.836Z,0
2018-03-20T19:38:45.920Z,0
2018-03-20T19:48:46.164Z,0
2018-03-20T19:58:46.404Z,0
2018-03-20T20:08:46.639Z,0
2018-03-20T20:19:13.834Z,0
2018-03-20T20:28:45.975Z,0
2018-03-20T20:38:45.898Z,0
2018-03-20T20:48:45.839Z,0
2018-03-20T20:58:45.976Z,0
2018-03-20T21:08:45.894Z,0
2018-03-20T21:18:45.975Z,0
2018-03-20T21:28:45.914Z,0
2018-03-20T21:38:45.921Z,0
2018-03-20T21:48:45.927Z,0
2018-03-20T21:58:46.013Z,0
2018-03-20T22:08:45.923Z,0
2018-03-20T22:18:47.517Z,0
2018-03-20T22:28:56.266Z,0
2018-03-20T22:38:45.995Z,0
2018-03-20T22:48:46.319Z,0
2018-03-20T22:58:46.167Z,0
2018-03-20T23:08:46.084Z,0
2018-03-20T23:18:57.343Z,0
2018-03-20T23:28:46.073Z,0
2018-03-20T23:38:46.505Z,0
2018-03-20T23:48:46.030Z,0
2018-03-20T23:58:45.996Z,0
